createdAt,value
2017-08-02T00:01:35.446Z,4.97
2017-08-02T00:04:03.765Z,4.93
2017-08-02T00:06:32.396Z,4.67
2017-08-02T00:09:00.736Z,4.80
2017-08-02T00:11:29.026Z,4.47
2017-08-02T00:13:57.907Z,4.63
2017-08-02T00:16:27.057Z,3.93
2017-08-02T00:18:55.418Z,5.20
2017-08-02T00:21:24.426Z,5.47
2017-08-02T00:23:53.661Z,5.60
2017-08-02T00:26:27.768Z,5.13
2017-08-02T00:28:57.213Z,5.50
2017-08-02T00:31:25.543Z,5.87
2017-08-02T00:33:54.141Z,4.73
2017-08-02T00:36:22.829Z,4.90
2017-08-02T00:38:52.018Z,5.67
2017-08-02T00:41:20.384Z,5.40
2017-08-02T00:43:49.906Z,5.30
2017-08-02T00:46:18.191Z,5.30
2017-08-02T00:48:46.501Z,5.90
2017-08-02T00:51:16.027Z,4.90
2017-08-02T00:53:45.499Z,5.97
2017-08-02T00:56:15.150Z,5.77
2017-08-02T00:58:44.312Z,5.13
2017-08-02T01:01:12.677Z,5.67
2017-08-02T01:03:41.731Z,5.40
2017-08-02T01:06:10.331Z,5.27
2017-08-02T01:08:38.715Z,6.20
2017-08-02T01:11:06.990Z,5.07
2017-08-02T01:13:35.289Z,6.07
2017-08-02T01:16:03.629Z,5.23
2017-08-02T01:18:32.308Z,5.67
2017-08-02T01:21:00.625Z,5.67
2017-08-02T01:23:29.416Z,5.40
2017-08-02T01:25:57.830Z,5.87
2017-08-02T01:28:26.141Z,5.33
2017-08-02T01:30:54.734Z,5.83
2017-08-02T01:33:23.019Z,5.80
2017-08-02T01:35:52.509Z,5.07
2017-08-02T01:38:20.813Z,6.57
2017-08-02T01:40:49.897Z,6.00
2017-08-02T01:43:19.443Z,5.50
2017-08-02T01:45:47.739Z,5.90
2017-08-02T01:48:16.067Z,6.40
2017-08-02T01:50:44.414Z,6.77
2017-08-02T01:53:12.715Z,5.73
2017-08-02T01:55:41.341Z,6.07
2017-08-02T01:58:09.651Z,6.43
2017-08-02T02:00:38.059Z,7.00
2017-08-02T02:03:07.274Z,6.17
2017-08-02T02:05:35.577Z,6.40
2017-08-02T02:08:03.852Z,6.73
2017-08-02T02:10:32.559Z,6.67
2017-08-02T02:13:01.942Z,7.40
2017-08-02T02:15:30.204Z,7.47
2017-08-02T02:17:58.965Z,8.50
2017-08-02T02:20:29.408Z,8.97
2017-08-02T02:22:57.698Z,8.23
2017-08-02T02:25:26.381Z,7.10
2017-08-02T02:27:55.485Z,8.40
2017-08-02T02:30:23.783Z,9.00
2017-08-02T02:32:52.498Z,8.87
2017-08-02T02:35:20.810Z,8.50
2017-08-02T02:37:49.898Z,8.17
2017-08-02T02:40:18.515Z,7.20
2017-08-02T02:42:48.657Z,9.67
2017-08-02T02:45:17.006Z,9.80
2017-08-02T02:47:45.675Z,9.33
2017-08-02T02:50:13.987Z,9.27
2017-08-02T02:52:43.192Z,8.63
2017-08-02T02:55:12.521Z,8.53
2017-08-02T02:57:41.512Z,8.87
2017-08-02T03:00:11.237Z,8.20
2017-08-02T03:02:41.216Z,9.90
2017-08-02T03:05:10.307Z,10.40
2017-08-02T03:07:38.639Z,9.37
2017-08-02T03:10:07.472Z,10.47
2017-08-02T03:12:35.768Z,11.73
2017-08-02T03:15:04.889Z,10.87
2017-08-02T03:17:34.400Z,10.63
2017-08-02T03:20:02.786Z,12.10
2017-08-02T03:22:31.065Z,11.50
2017-08-02T03:25:00.296Z,10.80
2017-08-02T03:27:28.597Z,11.70
2017-08-02T03:29:58.492Z,11.80
2017-08-02T03:32:27.149Z,12.30
2017-08-02T03:34:56.389Z,11.87
2017-08-02T03:37:25.566Z,11.80
2017-08-02T03:39:55.359Z,12.60
2017-08-02T03:42:23.652Z,12.57
2017-08-02T03:44:52.036Z,13.60
2017-08-02T03:47:20.687Z,13.37
2017-08-02T03:49:49.843Z,13.00
2017-08-02T03:52:18.921Z,11.77
2017-08-02T03:54:48.359Z,13.30
2017-08-02T03:57:17.475Z,12.70
2017-08-02T03:59:45.808Z,12.37
2017-08-02T04:02:15.248Z,13.63
2017-08-02T04:04:43.644Z,13.00
2017-08-02T04:07:12.480Z,13.40
2017-08-02T04:09:41.934Z,12.50
2017-08-02T04:12:10.814Z,11.53
2017-08-02T04:14:39.875Z,12.70
2017-08-02T04:17:09.407Z,12.13
2017-08-02T04:19:38.466Z,11.23
2017-08-02T04:22:08.814Z,12.73
2017-08-02T04:24:37.963Z,12.63
2017-08-02T04:27:06.543Z,11.43
2017-08-02T04:29:36.302Z,11.50
2017-08-02T04:32:04.888Z,14.40
2017-08-02T04:34:33.193Z,12.20
2017-08-02T04:37:01.844Z,12.30
2017-08-02T04:39:31.765Z,12.77
2017-08-02T04:42:00.073Z,13.10
2017-08-02T04:44:29.327Z,12.53
2017-08-02T04:46:58.779Z,14.57
2017-08-02T04:49:27.997Z,12.57
2017-08-02T04:51:56.283Z,13.10
2017-08-02T04:54:24.988Z,13.10
2017-08-02T04:56:54.956Z,15.67
2017-08-02T04:59:23.243Z,13.53
2017-08-02T05:01:51.993Z,14.40
2017-08-02T05:04:20.451Z,14.97
2017-08-02T05:06:48.765Z,13.70
2017-08-02T05:09:18.733Z,16.10
2017-08-02T05:11:47.311Z,14.63
2017-08-02T05:14:16.212Z,15.23
2017-08-02T05:16:44.827Z,14.60
2017-08-02T05:19:13.139Z,15.57
2017-08-02T05:21:42.213Z,14.90
2017-08-02T05:24:10.880Z,15.73
2017-08-02T05:26:39.154Z,16.23
2017-08-02T05:29:07.658Z,17.17
2017-08-02T05:31:37.680Z,18.10
2017-08-02T05:34:06.026Z,17.40
2017-08-02T05:36:34.334Z,18.60
2017-08-02T05:39:03.026Z,22.17
2017-08-02T05:41:31.698Z,18.33
2017-08-02T05:43:59.999Z,20.17
2017-08-02T05:46:29.199Z,20.37
2017-08-02T05:48:58.293Z,16.93
2017-08-02T05:51:27.405Z,18.60
2017-08-02T05:53:56.122Z,18.70
2017-08-02T05:56:25.191Z,21.07
2017-08-02T05:58:54.149Z,24.03
2017-08-02T06:01:24.122Z,23.27
2017-08-02T06:03:52.436Z,19.43
2017-08-02T06:06:21.516Z,18.50
2017-08-02T06:08:49.848Z,18.80
2017-08-02T06:11:18.137Z,18.30
2017-08-02T06:13:46.756Z,16.50
2017-08-02T06:16:15.080Z,16.53
2017-08-02T06:18:43.421Z,17.93
2017-08-02T06:21:12.620Z,16.57
2017-08-02T06:23:40.905Z,17.43
2017-08-02T06:26:09.584Z,15.23
2017-08-02T06:28:37.953Z,15.97
2017-08-02T06:31:06.257Z,15.83
2017-08-02T06:33:35.128Z,17.00
2017-08-02T06:36:03.516Z,14.90
2017-08-02T06:38:32.124Z,13.83
2017-08-02T06:41:03.908Z,14.57
2017-08-02T06:43:32.742Z,11.97
2017-08-02T06:46:01.803Z,14.47
2017-08-02T06:48:30.876Z,13.07
2017-08-02T06:50:59.315Z,14.90
2017-08-02T06:53:27.691Z,12.43
2017-08-02T06:55:56.347Z,11.57
2017-08-02T06:58:24.680Z,14.30
2017-08-02T07:00:54.006Z,12.47
2017-08-02T07:03:22.335Z,12.70
2017-08-02T07:05:51.470Z,14.97
2017-08-02T07:08:20.107Z,12.00
2017-08-02T07:10:48.411Z,12.10
2017-08-02T07:13:16.750Z,11.60
2017-08-02T07:15:45.079Z,13.10
2017-08-02T07:18:13.481Z,11.90
2017-08-02T07:20:42.092Z,11.23
2017-08-02T07:23:12.516Z,10.33
2017-08-02T07:25:40.787Z,10.30
2017-08-02T07:28:14.944Z,10.90
2017-08-02T07:30:43.299Z,10.03
2017-08-02T07:33:12.231Z,9.00
2017-08-02T07:35:40.545Z,9.83
2017-08-02T07:38:09.610Z,9.47
2017-08-02T07:40:37.924Z,11.03
2017-08-02T07:43:06.190Z,8.77
2017-08-02T07:45:34.859Z,9.33
2017-08-02T07:48:03.159Z,8.63
2017-08-02T07:50:32.242Z,9.23
2017-08-02T07:53:00.641Z,8.33
2017-08-02T07:55:28.971Z,8.07
2017-08-02T07:57:59.351Z,7.73
2017-08-02T08:00:27.755Z,8.47
2017-08-02T08:02:56.628Z,9.20
2017-08-02T08:05:25.358Z,10.00
2017-08-02T08:07:53.745Z,8.37
2017-08-02T08:10:22.085Z,7.33
2017-08-02T08:12:50.465Z,6.90
2017-08-02T08:15:18.832Z,7.13
2017-08-02T08:17:48.426Z,6.87
2017-08-02T08:20:18.363Z,6.33
2017-08-02T08:22:46.707Z,6.30
2017-08-02T08:25:15.003Z,7.80
2017-08-02T08:27:43.388Z,6.53
2017-08-02T08:30:12.003Z,8.03
2017-08-02T08:32:40.369Z,8.17
2017-08-02T08:35:08.694Z,6.67
2017-08-02T08:37:38.435Z,9.20
2017-08-02T08:40:07.530Z,6.60
2017-08-02T08:42:37.018Z,6.20
2017-08-02T08:45:06.972Z,6.27
2017-08-02T08:47:37.157Z,5.83
2017-08-02T08:50:05.491Z,5.70
2017-08-02T08:52:33.793Z,4.90
2017-08-02T08:55:02.425Z,6.40
2017-08-02T08:57:32.467Z,5.53
2017-08-02T09:00:00.805Z,6.93
2017-08-02T09:02:29.135Z,6.20
2017-08-02T09:04:57.485Z,7.67
2017-08-02T09:07:26.317Z,5.80
2017-08-02T09:09:54.688Z,6.30
2017-08-02T09:12:23.158Z,6.13
2017-08-02T09:14:51.489Z,6.00
2017-08-02T09:17:20.586Z,6.70
2017-08-02T09:19:48.923Z,6.47
2017-08-02T09:22:18.057Z,6.80
2017-08-02T09:24:46.809Z,7.13
2017-08-02T09:27:15.203Z,7.67
2017-08-02T09:29:46.105Z,7.50
2017-08-02T09:32:14.490Z,8.67
2017-08-02T09:34:43.702Z,5.93
2017-08-02T09:37:12.318Z,6.47
2017-08-02T09:39:41.945Z,6.57
2017-08-02T09:42:11.510Z,6.37
2017-08-02T09:44:40.401Z,6.00
2017-08-02T09:47:09.263Z,6.17
2017-08-02T09:49:39.208Z,7.73
2017-08-02T09:52:07.535Z,6.80
2017-08-02T09:54:37.495Z,6.77
2017-08-02T09:57:06.745Z,6.97
2017-08-02T09:59:37.349Z,7.47
2017-08-02T10:02:05.728Z,7.23
2017-08-02T10:04:34.397Z,8.00
2017-08-02T10:07:03.102Z,7.43
2017-08-02T10:09:32.648Z,6.10
2017-08-02T10:12:01.414Z,6.30
2017-08-02T10:14:30.262Z,5.43
2017-08-02T10:16:58.742Z,5.97
2017-08-02T10:19:27.177Z,6.07
2017-08-02T10:21:56.916Z,7.20
2017-08-02T10:24:26.049Z,6.00
2017-08-02T10:26:54.353Z,7.20
2017-08-02T10:29:23.362Z,6.22
2017-08-02T10:31:52.486Z,5.50
2017-08-02T10:34:22.819Z,5.27
2017-08-02T10:36:52.444Z,6.30
2017-08-02T10:39:22.286Z,5.53
2017-08-02T10:41:50.478Z,6.20
2017-08-02T10:44:18.921Z,7.17
2017-08-02T10:46:47.240Z,7.43
2017-08-02T10:49:15.541Z,6.20
2017-08-02T10:51:44.160Z,5.93
2017-08-02T10:54:12.537Z,6.00
2017-08-02T10:56:40.944Z,6.07
2017-08-02T10:59:09.255Z,5.40
2017-08-02T11:01:38.300Z,5.50
2017-08-02T11:04:07.354Z,6.25
2017-08-02T11:06:35.627Z,5.83
2017-08-02T11:09:05.625Z,6.00
2017-08-02T11:11:33.799Z,5.00
2017-08-02T11:14:02.071Z,4.47
2017-08-02T11:16:31.020Z,5.53
2017-08-02T11:18:59.293Z,4.70
2017-08-02T11:21:27.932Z,5.50
2017-08-02T11:23:56.208Z,4.40
2017-08-02T11:26:24.544Z,5.23
2017-08-02T11:28:54.223Z,5.60
2017-08-02T11:31:22.930Z,6.70
2017-08-02T11:33:52.251Z,4.23
2017-08-02T11:36:20.741Z,4.93
2017-08-02T11:38:49.044Z,5.83
2017-08-02T11:41:17.325Z,4.90
2017-08-02T11:43:46.510Z,4.70
2017-08-02T11:46:16.712Z,5.00
2017-08-02T11:48:45.908Z,5.20
2017-08-02T11:51:15.150Z,4.80
2017-08-02T11:53:43.825Z,5.20
2017-08-02T11:56:12.889Z,5.60
2017-08-02T11:58:41.352Z,4.83
2017-08-02T12:01:10.462Z,6.27
2017-08-02T12:03:38.743Z,5.83
2017-08-02T12:06:08.051Z,5.13
2017-08-02T12:08:36.357Z,7.13
2017-08-02T12:11:07.732Z,5.30
2017-08-02T12:13:36.039Z,5.80
2017-08-02T12:16:04.769Z,6.23
2017-08-02T12:18:33.094Z,4.80
2017-08-02T12:21:01.432Z,5.53
2017-08-02T12:23:30.021Z,5.80
2017-08-02T12:25:58.542Z,6.67
2017-08-02T12:28:31.014Z,7.07
2017-08-02T12:30:59.652Z,7.17
2017-08-02T12:33:29.002Z,6.80
2017-08-02T12:35:57.307Z,7.50
2017-08-02T12:38:25.912Z,6.70
2017-08-02T12:40:54.254Z,7.33
2017-08-02T12:43:22.618Z,6.50
2017-08-02T12:45:51.510Z,8.70
2017-08-02T12:48:19.830Z,7.10
2017-08-02T12:50:48.141Z,8.17
2017-08-02T12:53:16.823Z,6.90
2017-08-02T12:55:45.177Z,5.90
2017-08-02T12:58:14.246Z,5.80
2017-08-02T13:00:43.151Z,5.40
2017-08-02T13:03:11.622Z,6.17
2017-08-02T13:05:39.952Z,6.00
2017-08-02T13:08:08.568Z,6.63
2017-08-02T13:10:37.252Z,6.00
2017-08-02T13:13:05.583Z,5.93
2017-08-02T13:15:34.503Z,6.43
2017-08-02T13:18:03.541Z,6.63
2017-08-02T13:20:31.990Z,6.43
2017-08-02T13:23:01.349Z,5.93
2017-08-02T13:25:29.628Z,6.40
2017-08-02T13:27:58.011Z,7.47
2017-08-02T13:30:26.633Z,5.60
2017-08-02T13:32:54.951Z,6.27
2017-08-02T13:35:23.343Z,6.83
2017-08-02T13:37:53.012Z,7.33
2017-08-02T13:40:22.078Z,31.27
2017-08-02T13:42:50.410Z,7.27
2017-08-02T13:45:20.481Z,6.83
2017-08-02T13:47:49.480Z,6.77
2017-08-02T13:50:19.144Z,6.03
2017-08-02T13:52:47.745Z,6.27
2017-08-02T13:55:16.116Z,5.47
2017-08-02T13:57:44.456Z,6.43
2017-08-02T14:00:12.833Z,5.30
2017-08-02T14:02:42.233Z,6.17
2017-08-02T14:05:11.341Z,5.47
2017-08-02T14:07:39.676Z,4.23
2017-08-02T14:10:09.506Z,5.67
2017-08-02T14:12:38.080Z,5.07
2017-08-02T14:15:07.132Z,4.43
2017-08-02T14:17:35.736Z,5.60
2017-08-02T14:20:04.820Z,5.47
2017-08-02T14:22:33.151Z,3.90
2017-08-02T14:25:01.452Z,4.57
2017-08-02T14:27:30.105Z,5.20
2017-08-02T14:29:58.772Z,4.13
2017-08-02T14:32:27.159Z,4.60
2017-08-02T14:34:56.616Z,5.33
2017-08-02T14:37:25.856Z,3.87
2017-08-02T14:39:54.669Z,3.93
2017-08-02T14:42:23.137Z,4.40
2017-08-02T14:44:51.452Z,4.43
2017-08-02T14:47:20.028Z,3.77
2017-08-02T14:49:49.206Z,4.17
2017-08-02T14:52:18.306Z,5.60
2017-08-02T14:54:48.079Z,4.40
2017-08-02T14:57:17.053Z,3.67
2017-08-02T14:59:46.300Z,4.50
2017-08-02T15:02:14.760Z,4.10
2017-08-02T15:04:43.393Z,4.43
2017-08-02T15:07:11.694Z,3.90
2017-08-02T15:09:40.005Z,3.97
2017-08-02T15:12:08.317Z,4.30
2017-08-02T15:14:37.418Z,2.97
2017-08-02T15:17:07.159Z,3.10
2017-08-02T15:19:36.272Z,4.13
2017-08-02T15:22:04.667Z,4.10
2017-08-02T15:24:33.756Z,4.00
2017-08-02T15:27:02.073Z,3.00
2017-08-02T15:29:30.444Z,3.73
2017-08-02T15:32:03.347Z,3.50
2017-08-02T15:34:31.667Z,3.97
2017-08-02T15:37:01.075Z,3.63
2017-08-02T15:39:31.103Z,3.63
2017-08-02T15:41:59.695Z,3.80
2017-08-02T15:44:30.219Z,3.47
2017-08-02T15:46:59.426Z,3.17
2017-08-02T15:49:29.047Z,3.43
2017-08-02T15:51:59.760Z,3.20
2017-08-02T15:54:28.069Z,3.20
2017-08-02T15:56:56.366Z,3.97
2017-08-02T15:59:25.487Z,2.57
2017-08-02T16:01:53.793Z,2.93
2017-08-02T16:04:22.798Z,3.07
2017-08-02T16:06:51.076Z,2.90
2017-08-02T16:09:19.979Z,3.67
2017-08-02T16:11:48.289Z,3.20
2017-08-02T16:14:16.911Z,3.30
2017-08-02T16:16:45.962Z,3.30
2017-08-02T16:19:15.028Z,3.40
2017-08-02T16:21:43.790Z,4.53
2017-08-02T16:24:12.110Z,4.17
2017-08-02T16:26:41.470Z,4.37
2017-08-02T16:29:14.246Z,3.20
2017-08-02T16:31:42.810Z,3.50
2017-08-02T16:34:11.102Z,3.87
2017-08-02T16:36:39.607Z,3.93
2017-08-02T16:39:07.946Z,3.87
2017-08-02T16:41:36.669Z,4.17
2017-08-02T16:44:06.700Z,4.00
2017-08-02T16:46:36.955Z,3.63
2017-08-02T16:49:05.299Z,3.17
2017-08-02T16:51:35.791Z,8.03
2017-08-02T16:54:04.905Z,5.87
2017-08-02T16:56:33.513Z,4.03
2017-08-02T16:59:03.635Z,3.67
2017-08-02T17:01:32.475Z,4.23
2017-08-02T17:04:00.756Z,3.90
2017-08-02T17:06:29.040Z,4.90
2017-08-02T17:08:57.378Z,4.10
2017-08-02T17:11:25.684Z,4.70
2017-08-02T17:13:54.346Z,13.77
2017-08-02T17:16:22.659Z,6.27
2017-08-02T17:18:51.684Z,4.60
2017-08-02T17:21:21.246Z,4.47
2017-08-02T17:23:50.337Z,5.20
2017-08-02T17:26:18.603Z,4.93
2017-08-02T17:28:46.968Z,4.47
2017-08-02T17:31:16.198Z,4.80
2017-08-02T17:33:44.523Z,5.60
2017-08-02T17:36:13.554Z,4.50
2017-08-02T17:38:42.189Z,6.10
2017-08-02T17:41:11.276Z,5.90
2017-08-02T17:43:39.633Z,4.53
2017-08-02T17:46:08.241Z,4.93
2017-08-02T17:48:36.602Z,5.30
2017-08-02T17:51:05.317Z,6.70
2017-08-02T17:53:33.886Z,6.23
2017-08-02T17:56:02.197Z,5.60
2017-08-02T17:58:31.235Z,7.37
2017-08-02T18:00:59.882Z,12.30
2017-08-02T18:03:28.206Z,5.90
2017-08-02T18:05:56.517Z,5.63
2017-08-02T18:08:25.095Z,6.47
2017-08-02T18:10:53.404Z,5.80
2017-08-02T18:13:21.718Z,6.47
2017-08-02T18:15:51.209Z,6.70
2017-08-02T18:18:19.515Z,5.40
2017-08-02T18:20:47.783Z,5.47
2017-08-02T18:23:17.225Z,8.60
2017-08-02T18:25:46.191Z,6.70
2017-08-02T18:28:14.511Z,7.57
2017-08-02T18:30:43.105Z,8.20
2017-08-02T18:33:11.396Z,7.47
2017-08-02T18:35:39.709Z,8.17
2017-08-02T18:38:08.292Z,7.13
2017-08-02T18:40:36.668Z,7.27
2017-08-02T18:43:05.096Z,7.10
2017-08-02T18:45:34.555Z,8.20
2017-08-02T18:48:03.738Z,7.33
2017-08-02T18:50:32.050Z,8.07
2017-08-02T18:53:00.607Z,8.07
2017-08-02T18:55:28.888Z,7.50
2017-08-02T18:57:58.137Z,7.67
2017-08-02T19:00:26.871Z,8.80
2017-08-02T19:02:55.181Z,8.17
2017-08-02T19:05:23.496Z,7.80
2017-08-02T19:07:52.289Z,7.73
2017-08-02T19:10:20.636Z,8.37
2017-08-02T19:12:48.977Z,8.37
2017-08-02T19:15:17.723Z,8.67
2017-08-02T19:17:46.054Z,7.77
2017-08-02T19:20:15.081Z,8.00
2017-08-02T19:22:43.839Z,9.10
2017-08-02T19:25:12.918Z,9.13
2017-08-02T19:27:42.214Z,7.83
2017-08-02T19:30:11.537Z,8.30
2017-08-02T19:32:40.635Z,7.60
2017-08-02T19:35:09.002Z,7.70
2017-08-02T19:37:38.108Z,8.60
2017-08-02T19:40:06.927Z,8.53
2017-08-02T19:42:35.267Z,8.13
2017-08-02T19:45:03.926Z,8.47
2017-08-02T19:47:32.824Z,7.43
2017-08-02T19:50:01.124Z,8.43
2017-08-02T19:52:29.991Z,8.67
2017-08-02T19:54:58.262Z,8.30
2017-08-02T19:57:26.893Z,8.37
2017-08-02T19:59:55.498Z,9.00
2017-08-02T20:02:24.411Z,9.20
2017-08-02T20:04:53.533Z,10.00
2017-08-02T20:07:22.908Z,9.17
2017-08-02T20:09:53.036Z,9.23
2017-08-02T20:12:21.868Z,8.90
2017-08-02T20:14:50.597Z,8.00
2017-08-02T20:17:18.924Z,8.37
2017-08-02T20:19:48.172Z,8.93
2017-08-02T20:22:16.806Z,9.57
2017-08-02T20:24:45.111Z,8.77
2017-08-02T20:27:13.409Z,10.10
2017-08-02T20:29:44.792Z,10.20
2017-08-02T20:32:13.809Z,12.10
2017-08-02T20:34:42.131Z,12.63
2017-08-02T20:37:11.385Z,9.53
2017-08-02T20:39:39.949Z,10.60
2017-08-02T20:42:08.287Z,8.60
2017-08-02T20:44:37.797Z,9.63
2017-08-02T20:47:06.962Z,9.43
2017-08-02T20:49:35.319Z,9.53
2017-08-02T20:52:03.629Z,8.77
2017-08-02T20:54:31.933Z,8.23
2017-08-02T20:57:01.064Z,8.50
2017-08-02T20:59:29.341Z,8.40
2017-08-02T21:01:58.287Z,9.30
2017-08-02T21:04:27.505Z,8.67
2017-08-02T21:06:56.184Z,8.30
2017-08-02T21:09:24.569Z,8.80
2017-08-02T21:11:52.969Z,8.23
2017-08-02T21:14:21.651Z,7.97
2017-08-02T21:16:49.940Z,7.50
2017-08-02T21:19:19.427Z,7.13
2017-08-02T21:21:49.071Z,8.27
2017-08-02T21:24:18.290Z,8.30
2017-08-02T21:26:48.019Z,8.50
2017-08-02T21:29:16.441Z,7.97
2017-08-02T21:31:44.736Z,7.93
2017-08-02T21:34:13.842Z,8.83
2017-08-02T21:36:42.129Z,8.73
2017-08-02T21:39:10.487Z,9.17
2017-08-02T21:41:38.783Z,8.73
2017-08-02T21:44:08.020Z,7.90
2017-08-02T21:46:36.306Z,8.33
2017-08-02T21:49:05.017Z,8.30
2017-08-02T21:51:33.292Z,7.80
2017-08-02T21:54:01.639Z,8.97
2017-08-02T21:56:31.703Z,9.00
2017-08-02T21:58:59.980Z,8.60
2017-08-02T22:01:33.503Z,8.17
2017-08-02T22:04:01.799Z,7.60
2017-08-02T22:06:31.002Z,7.63
2017-08-02T22:08:59.354Z,8.30
2017-08-02T22:11:28.336Z,8.40
2017-08-02T22:13:57.615Z,9.10
2017-08-02T22:16:26.001Z,9.00
2017-08-02T22:18:55.403Z,8.60
2017-08-02T22:21:23.707Z,9.00
2017-08-02T22:23:52.021Z,9.83
2017-08-02T22:26:20.343Z,9.10
2017-08-02T22:28:49.247Z,9.83
2017-08-02T22:31:18.351Z,8.97
2017-08-02T22:33:47.409Z,9.60
2017-08-02T22:36:15.743Z,10.27
2017-08-02T22:38:44.047Z,9.27
2017-08-02T22:41:12.392Z,9.13
2017-08-02T22:43:41.324Z,8.73
2017-08-02T22:46:09.648Z,8.53
2017-08-02T22:48:38.256Z,9.00
2017-08-02T22:51:06.911Z,8.53
2017-08-02T22:53:35.231Z,10.07
2017-08-02T22:56:04.279Z,9.50
2017-08-02T22:58:32.600Z,8.93
2017-08-02T23:01:01.219Z,9.43
2017-08-02T23:03:30.494Z,8.40
2017-08-02T23:05:58.789Z,8.47
2017-08-02T23:08:28.780Z,9.90
2017-08-02T23:10:57.129Z,10.20
2017-08-02T23:13:25.453Z,8.47
2017-08-02T23:15:54.153Z,9.33
2017-08-02T23:18:22.459Z,8.50
2017-08-02T23:20:50.752Z,8.80
2017-08-02T23:23:19.178Z,9.00
2017-08-02T23:25:48.052Z,9.20
2017-08-02T23:28:16.766Z,9.93
2017-08-02T23:30:45.763Z,8.63
2017-08-02T23:33:14.086Z,10.87
2017-08-02T23:35:42.429Z,11.93
2017-08-02T23:38:10.750Z,9.73
2017-08-02T23:40:39.431Z,9.70
2017-08-02T23:43:08.525Z,11.73
2017-08-02T23:45:37.640Z,10.40
2017-08-02T23:48:07.191Z,10.63
2017-08-02T23:50:35.504Z,9.60
2017-08-02T23:53:03.853Z,10.50
2017-08-02T23:55:32.839Z,10.33
2017-08-02T23:58:01.431Z,9.90
